• Join FlightAware (Why Join?)
  • Login
  • US Flag GB Flag 
04:27 EDT


 

Airport Tracker/Info


-or-


 

Live Flight TrackerFlight Track Log ✈ SWA862 ✈ 05-Apr-2013 ✈ KBWI - KMHT

Flight Track Log - Related Links

Times and Time Zones

All times are in EDT time to prevent confusion due to time zone crossing. See the SWA862 flight status page for this flight to view local times or setup timezone preferences in your user account.

Time Position Orientation Groundspeed Altitude Reporting Facility
EDT Latitude Longitude Course Direction KTS MPH feet Rate Location/Type
22:05 39.1667 -76.7167 194° South 164 189 2,400  Level Potomac TRACON
22:06 39.1167 -76.7333 195° South 244 281 4,600 2,580 Climbing Potomac TRACON
22:08 39.1283 -76.5708 85° East 281 323 9,900 3,000 Climbing Washington Center
22:09 39.1375 -76.4506 84° East 309 356 13,100 3,300 Climbing Washington Center
22:10 39.1489 -76.3169 84° East 346 398 16,500 3,360 Climbing Washington Center
22:11 39.1661 -76.1778 81° East 373 429 19,900 3,180 Climbing Washington Center
22:12 39.2356 -76.0578 53° Northeast 372 428 22,900 2,040 Climbing Washington Center
22:13 39.3047 -75.9536 49° Northeast 372 428 24,000 1,800 Climbing Washington Center
22:14 39.3736 -75.8439 51° Northeast 382 440 26,500 2,400 Climbing Washington Center
22:15 39.4467 -75.7286 51° Northeast 396 456 28,900 2,160 Climbing Washington Center
22:17 39.5714 -75.5300 51° Northeast 419 482 32,700 1,860 Climbing New York Center
22:18 39.6428 -75.4133 52° Northeast 419 482 34,200 1,260 Climbing New York Center
22:19 39.7250 -75.2783 52° Northeast 436 502 35,200 960 Climbing New York Center
22:20 39.7964 -75.1614 52° Northeast 460 529 36,200 840 Climbing New York Center
22:21 39.8783 -75.0286 51° Northeast 472 543 36,900 360 Climbing New York Center
22:22 39.9928 -74.9136 38° Northeast 472 543 37,000  Climbing New York Center
22:23 40.1153 -74.8667 16° North 472 543 37,000  Level New York Center
22:24 40.2083 -74.8342 15° North 472 543 37,000  Level New York Center
22:25 40.3561 -74.7747 17° North 472 543 37,000  Level New York Center
22:26 40.4767 -74.7244 18° North 458 527 37,000  Level New York Center
22:27 40.5969 -74.6767 17° North 458 527 37,000  Level New York Center
22:28 40.7194 -74.6261 17° North 458 527 37,000  Level New York Center
22:30 41.0142 -74.5114 16° North 456 525 37,000  Level Boston Center
22:31 41.1358 -74.4631 17° North 450 518 37,000  Level Boston Center
22:32 41.2536 -74.4169 16° North 445 512 37,000  Level Boston Center
22:33 41.3753 -74.3683 17° North 445 512 37,000  Level Boston Center
22:34 41.4906 -74.3189 18° North 439 505 37,000  Level Boston Center
22:35 41.6081 -74.2753 16° North 445 512 37,000  Level Boston Center
22:36 41.7278 -74.2258 17° North 445 512 37,000 -540 Level Boston Center
22:37 41.8283 -74.1897 15° North 433 498 36,000 -1,920 Descending Boston Center
22:38 41.9458 -74.1400 17° North 433 498 33,200 -1,980 Descending Boston Center
22:39 42.0569 -74.0925 18° North 428 493 32,100 -1,380 Descending Boston Center
22:40 42.1358 -73.9658 50° Northeast 411 473 30,500 -1,680 Descending Boston Center
22:41 42.1961 -73.8133 62° Northeast 426 490 28,800 -1,860 Descending Boston Center
22:42 42.2628 -73.6436 62° Northeast 452 520 26,800 -1,860 Descending Boston Center
22:43 42.3206 -73.4958 62° Northeast 452 520 25,200 -1,680 Descending Boston Center
22:44 42.3822 -73.3422 61° Northeast 450 518 23,500 -1,500 Descending Boston Center
22:45 42.4439 -73.1942 61° Northeast 457 526 22,200 -1,200 Descending Boston Center
22:46 42.5031 -73.0400 62° Northeast 451 519 21,200 -1,020 Descending Boston Center
22:47 42.5578 -72.8994 62° Northeast 443 510 20,200 -1,020 Descending Boston Center
22:48 42.6106 -72.7419 65° Northeast 436 502 19,200 -1,140 Descending Boston Center
22:49 42.6525 -72.5953 69° East 436 502 18,000 -1,860 Descending Boston Center
22:50 42.6900 -72.4458 71° East 431 496 15,600 -2,400 Descending Boston Center
22:51 42.7256 -72.3044 71° East 415 478 13,200 -2,340 Descending Boston Center
22:52 42.7564 -72.1800 71° East 387 445 10,900 -1,440 Descending Boston Center
22:53 42.7747 -72.0356 80° East 359 413 10,300 -900 Descending Boston Center
22:54 42.7722 -71.9339 92° East 315 362 9,200 -1,500 Descending Boston Center
22:55 42.7697 -71.8094 92° East 298 343 7,400 -1,740 Descending Boston Center
22:56 42.7669 -71.7133 92° East 287 330 5,700 -1,500 Descending Boston Center
22:57 42.7642 -71.5944 92° East 287 330 4,400 -1,260 Descending Boston Center
22:58 42.7697 -71.5067 85° East 273 314 3,200 -1,080 Descending Boston Center
22:59 42.7833 -71.4047 80° East 256 295 2,300 -660 Descending Boston Center
23:00 42.8142 -71.3703 39° Northeast 180 207 1,900 -240 Descending Boston Center
23:01 42.8478 -71.3839 343° North 112 129 1,900 -360 Level Boston Center
23:02 42.8750 -71.4031 333° Northwest 112 129 1,200 -780 Descending Boston Center
23:03 42.9128 -71.4225 339° North 122 140 400 -480 Descending Boston Center
23:04 42.9400 -71.4417 333° Northwest 122 140 300 9,360 Descending Boston Center
23:05 42.9714 -71.4611 336° Northwest 122 140 19,000 18,360 Climbing Boston Center